Time;durP1;ratioP1;P1;durP2;ratioP2;P2;SDS_P1;SDS_P2;PMS_P1;PMS_P2;Temp;Humidity;BMP_temperature;BMP_pressure;BME280_temperature;BME280_humidity;BME280_pressure;Samples;Min_cycle;Max_cycle;Signal;HPM_P1;HPM_P2
2022/12/07 00:00:45;;;;;;;12.1;8.9;;;;;;;2.53;92.63184;936.2476;;;;
2022/12/07 00:03:15;;;;;;;13.4;8.8;;;;;;;2.52;92.52832;936.1985;;;;
2022/12/07 00:05:49;;;;;;;12.1;8.4;;;;;;;2.51;92.58301;936.1943;;;;
2022/12/07 00:08:24;;;;;;;11.5;8.6;;;;;;;2.5;92.55859;936.1892;;;;
2022/12/07 00:10:58;;;;;;;12.8;8.4;;;;;;;2.48;92.4873;936.0948;;;;
2022/12/07 00:13:36;;;;;;;22.3;13.2;;;;;;;2.51;92.42578;936.155;;;;
2022/12/07 00:16:05;;;;;;;14.3;9.5;;;;;;;2.54;92.12891;936.0908;;;;
2022/12/07 00:18:45;;;;;;;16.8;10.8;;;;;;;2.59;91.81641;936.1044;;;;
2022/12/07 00:21:12;;;;;;;18.5;11;;;;;;;2.53;91.8584;936.0864;;;;
2022/12/07 00:23:40;;;;;;;14.3;10.1;;;;;;;2.55;91.96289;935.9944;;;;
2022/12/07 00:26:15;;;;;;;12.2;9.7;;;;;;;2.58;91.9375;936.0239;;;;
2022/12/07 00:28:40;;;;;;;13.9;9.8;;;;;;;2.66;91.80762;936.0488;;;;
2022/12/07 00:31:19;;;;;;;13.8;9.1;;;;;;;2.67;91.81836;935.9783;;;;
2022/12/07 00:33:48;;;;;;;12.5;8.4;;;;;;;2.66;91.68359;936.0206;;;;
2022/12/07 00:36:13;;;;;;;11.1;7.5;;;;;;;2.67;91.60547;936.0192;;;;
2022/12/07 00:38:42;;;;;;;9.2;7.1;;;;;;;2.69;91.4541;936.0475;;;;
2022/12/07 00:41:13;;;;;;;9;6.9;;;;;;;2.7;91.47852;935.9645;;;;
2022/12/07 00:43:41;;;;;;;14;8.1;;;;;;;2.67;90.92383;935.955;;;;
2022/12/07 00:46:07;;;;;;;15.6;9.4;;;;;;;2.68;90.47754;935.952;;;;
2022/12/07 00:48:33;;;;;;;17.6;9.1;;;;;;;2.67;90.61133;935.9526;;;;
2022/12/07 00:51:54;;;;;;;15;8.9;;;;;;;2.67;90.94824;935.9182;;;;
2022/12/07 00:54:21;;;;;;;13.4;8.6;;;;;;;2.73;90.8584;935.9317;;;;
2022/12/07 00:57:58;;;;;;;13.1;7.7;;;;;;;2.72;90.95801;935.8978;;;;
2022/12/07 01:00:12;;;;;;;15.4;8.7;;;;;;;2.62;91.50586;935.8036;;;;
2022/12/07 01:02:37;;;;;;;14.9;9;;;;;;;2.67;91.55371;935.8253;;;;
2022/12/07 01:05:02;;;;;;;16.2;9.2;;;;;;;2.67;91.50488;935.7645;;;;
2022/12/07 01:07:34;;;;;;;18.1;9.7;;;;;;;2.66;91.63867;935.7606;;;;
2022/12/07 01:10:01;;;;;;;17.4;9.8;;;;;;;2.72;91.33691;935.7946;;;;
2022/12/07 01:12:26;;;;;;;14.6;8.7;;;;;;;2.73;91.3291;935.8185;;;;
2022/12/07 01:14:53;;;;;;;15.6;9.4;;;;;;;2.74;91.26367;935.7664;;;;
2022/12/07 01:17:19;;;;;;;14.5;8.3;;;;;;;2.74;91.71289;935.8638;;;;
2022/12/07 01:19:50;;;;;;;15.2;8.7;;;;;;;2.78;91.97852;935.8794;;;;
2022/12/07 01:22:47;;;;;;;13.4;8.4;;;;;;;2.78;92.0459;935.869;;;;
2022/12/07 01:25:19;;;;;;;12.7;8.4;;;;;;;2.83;91.65137;935.908;;;;
2022/12/07 01:27:51;;;;;;;12.7;8.2;;;;;;;2.82;91.4834;935.9511;;;;
2022/12/07 01:33:36;;;;;;;10.2;7;;;;;;;2.81;90.97656;935.993;;;;
2022/12/07 01:36:06;;;;;;;8.6;6.8;;;;;;;2.72;91.32715;936.011;;;;
2022/12/07 01:38:31;;;;;;;9.3;7.4;;;;;;;2.67;91.96387;935.9186;;;;
2022/12/07 01:40:59;;;;;;;8.6;7.1;;;;;;;2.68;92.31738;935.9003;;;;
2022/12/07 01:43:24;;;;;;;9.2;6.7;;;;;;;2.76;92.09766;935.9737;;;;
2022/12/07 01:45:49;;;;;;;8.9;6.7;;;;;;;2.81;91.63867;935.9341;;;;
2022/12/07 01:48:18;;;;;;;9.6;7;;;;;;;2.82;91.58398;935.9517;;;;
2022/12/07 01:50:43;;;;;;;8.3;6.6;;;;;;;2.8;91.74902;935.9661;;;;
2022/12/07 01:53:08;;;;;;;8.5;6.5;;;;;;;2.84;91.73438;935.9329;;;;
2022/12/07 01:55:33;;;;;;;9.1;6.4;;;;;;;2.82;91.40332;935.9415;;;;
2022/12/07 01:58:01;;;;;;;10.5;6.8;;;;;;;2.69;91.96094;935.9015;;;;
2022/12/07 02:00:26;;;;;;;9.4;6.6;;;;;;;2.61;92.82617;935.9385;;;;
2022/12/07 02:02:57;;;;;;;7.7;6.6;;;;;;;2.61;93.13086;935.9442;;;;
2022/12/07 02:05:22;;;;;;;7.7;6.3;;;;;;;2.58;93.28223;935.9344;;;;
2022/12/07 02:07:48;;;;;;;7.9;6.3;;;;;;;2.62;93.1875;935.8964;;;;
2022/12/07 02:10:34;;;;;;;7.7;6.2;;;;;;;2.65;93.22852;935.7867;;;;
2022/12/07 02:13:02;;;;;;;8.2;6.4;;;;;;;2.6;93.27344;935.8067;;;;
2022/12/07 02:15:34;;;;;;;9.9;6.9;;;;;;;2.57;93.51367;935.7782;;;;
2022/12/07 02:17:59;;;;;;;7.4;6;;;;;;;2.58;93.4707;935.8563;;;;
2022/12/07 02:20:57;;;;;;;7.5;6.4;;;;;;;2.68;93.26855;935.8208;;;;
2022/12/07 02:23:22;;;;;;;9.2;6.7;;;;;;;2.8;92.76758;935.8059;;;;
2022/12/07 02:25:51;;;;;;;8.2;5.7;;;;;;;2.86;92.44434;935.7935;;;;
2022/12/07 02:28:19;;;;;;;8.1;6.2;;;;;;;2.88;92.11426;935.7912;;;;
2022/12/07 02:30:45;;;;;;;9;6.2;;;;;;;2.9;91.91602;935.769;;;;
2022/12/07 02:33:10;;;;;;;7.9;6.3;;;;;;;2.95;91.37598;935.7738;;;;
2022/12/07 02:35:35;;;;;;;7.6;6.1;;;;;;;2.99;91.02441;935.7302;;;;
2022/12/07 02:38:03;;;;;;;9.7;6.1;;;;;;;3.01;90.70508;935.6763;;;;
2022/12/07 02:40:28;;;;;;;7.7;6.1;;;;;;;2.98;90.70898;935.652;;;;
2022/12/07 02:42:53;;;;;;;9.6;6.1;;;;;;;2.97;90.78516;935.6917;;;;
2022/12/07 02:45:19;;;;;;;8.6;6.5;;;;;;;2.98;90.95801;935.7456;;;;
2022/12/07 02:47:44;;;;;;;8.1;6.3;;;;;;;2.97;90.92188;935.7053;;;;
2022/12/07 02:50:09;;;;;;;7.7;6.4;;;;;;;2.91;91.11035;935.7158;;;;
2022/12/07 02:52:34;;;;;;;8.2;6.6;;;;;;;2.89;91.33105;935.7413;;;;
2022/12/07 02:55:03;;;;;;;8.8;6.9;;;;;;;2.91;91.33496;935.6858;;;;
2022/12/07 02:57:28;;;;;;;8.3;6.8;;;;;;;2.95;91.10645;935.6447;;;;
2022/12/07 02:59:53;;;;;;;8.1;6.6;;;;;;;2.92;91.2334;935.6428;;;;
2022/12/07 03:02:21;;;;;;;9.3;6.9;;;;;;;2.94;91.58691;935.5901;;;;
2022/12/07 03:04:47;;;;;;;8.8;7.1;;;;;;;2.92;91.4375;935.6085;;;;
2022/12/07 03:07:13;;;;;;;9.4;7.2;;;;;;;2.96;91.22266;935.5248;;;;
2022/12/07 03:09:43;;;;;;;8.7;7.1;;;;;;;2.91;91.3125;935.5051;;;;
2022/12/07 03:12:08;;;;;;;9.3;7;;;;;;;2.89;91.70117;935.5215;;;;
2022/12/07 03:14:34;;;;;;;8.5;6.8;;;;;;;2.91;91.62598;935.3973;;;;
2022/12/07 03:16:59;;;;;;;9.3;7.1;;;;;;;2.87;91.53809;935.5005;;;;
2022/12/07 03:19:24;;;;;;;9.2;6.7;;;;;;;2.86;91.51367;935.4623;;;;
2022/12/07 03:21:49;;;;;;;9.9;7.4;;;;;;;2.78;91.75586;935.4768;;;;
2022/12/07 03:24:15;;;;;;;9.7;7.2;;;;;;;2.66;92.42383;935.4154;;;;
2022/12/07 03:27:36;;;;;;;9;6.9;;;;;;;2.63;92.89746;935.4016;;;;
2022/12/07 03:30:01;;;;;;;10.1;8;;;;;;;2.58;93.45996;935.3447;;;;
2022/12/07 03:32:27;;;;;;;10.9;8.7;;;;;;;2.59;93.41699;935.4039;;;;
2022/12/07 03:38:46;;;;;;;10.2;7.8;;;;;;;2.72;93.05176;935.4205;;;;
2022/12/07 03:44:25;;;;;;;11.4;7.5;;;;;;;2.67;93.35645;935.4211;;;;
2022/12/07 03:48:14;;;;;;;9.9;7.8;;;;;;;2.7;93.39551;935.4905;;;;
2022/12/07 03:50:37;;;;;;;9.7;7.4;;;;;;;2.74;93.32715;935.455;;;;
2022/12/07 03:53:02;;;;;;;9.9;7.8;;;;;;;2.79;93.17969;935.3809;;;;
2022/12/07 03:56:26;;;;;;;10;7.8;;;;;;;2.82;92.9502;935.4453;;;;
2022/12/07 03:58:51;;;;;;;8.8;7.6;;;;;;;2.85;92.69141;935.4584;;;;
2022/12/07 04:02:38;;;;;;;9.9;7.7;;;;;;;2.95;92.4082;935.4906;;;;
2022/12/07 04:05:04;;;;;;;9.6;7.8;;;;;;;3;92.25195;935.4081;;;;
2022/12/07 04:07:29;;;;;;;9.7;7.9;;;;;;;3.02;92.1543;935.4932;;;;
2022/12/07 04:09:58;;;;;;;10.1;7.9;;;;;;;3.06;92.06348;935.4073;;;;
2022/12/07 04:12:23;;;;;;;10.8;7.4;;;;;;;3.09;92.04688;935.4789;;;;
2022/12/07 04:14:54;;;;;;;8.2;6.7;;;;;;;3.01;91.59375;935.4883;;;;
2022/12/07 04:19:58;;;;;;;9.3;7.2;;;;;;;2.76;92.81543;935.5319;;;;
2022/12/07 04:22:29;;;;;;;8.9;7.3;;;;;;;2.75;93.08398;935.4461;;;;
2022/12/07 04:28:35;;;;;;;8.1;6.5;;;;;;;2.68;93.80859;935.5642;;;;
2022/12/07 04:31:30;;;;;;;9.7;7.7;;;;;;;2.48;94.45898;935.5756;;;;
2022/12/07 04:39:46;;;;;;;11.5;8.5;;;;;;;2.57;94.90332;935.485;;;;
2022/12/07 04:42:12;;;;;;;9;7.5;;;;;;;2.61;95.00293;935.5181;;;;
2022/12/07 04:45:01;;;;;;;10.1;7.4;;;;;;;2.69;94.64941;935.5005;;;;
2022/12/07 04:47:31;;;;;;;10.6;7.4;;;;;;;2.76;94.11816;935.5352;;;;
2022/12/07 04:49:59;;;;;;;10;7.4;;;;;;;2.8;93.83203;935.5134;;;;
2022/12/07 04:52:31;;;;;;;10.5;7.8;;;;;;;2.9;93.57422;935.4835;;;;
2022/12/07 04:55:00;;;;;;;9.6;7.3;;;;;;;2.95;92.90137;935.5339;;;;
2022/12/07 04:57:25;;;;;;;10.8;7.8;;;;;;;3.01;92.6709;935.5717;;;;
2022/12/07 04:59:54;;;;;;;10.2;7.3;;;;;;;3.09;92.65039;935.5441;;;;
2022/12/07 05:02:47;;;;;;;11.2;7.7;;;;;;;3.09;91.72168;935.5466;;;;
2022/12/07 05:10:08;;;;;;;10.7;8.4;;;;;;;2.97;91.9873;935.5606;;;;
2022/12/07 05:12:37;;;;;;;11.2;8.4;;;;;;;3.04;91.69824;935.5898;;;;
2022/12/07 05:15:02;;;;;;;10.2;8;;;;;;;2.94;91.59863;935.4841;;;;
2022/12/07 05:17:27;;;;;;;11.2;7.8;;;;;;;2.85;92.14941;935.4825;;;;
2022/12/07 05:19:53;;;;;;;10.2;8;;;;;;;2.93;92.24707;935.5616;;;;
2022/12/07 05:22:18;;;;;;;9.8;7.7;;;;;;;2.96;92.14063;935.5208;;;;
2022/12/07 05:24:45;;;;;;;9.9;7.1;;;;;;;3.03;91.91016;935.4661;;;;
2022/12/07 05:27:10;;;;;;;11.1;7.8;;;;;;;3.01;91.62305;935.492;;;;
2022/12/07 05:29:39;;;;;;;10.6;8.1;;;;;;;2.92;91.70703;935.4197;;;;
2022/12/07 05:32:04;;;;;;;10.6;8.3;;;;;;;2.85;92.2207;935.4504;;;;
2022/12/07 05:34:58;;;;;;;9.7;7.7;;;;;;;2.88;92.32715;935.4161;;;;
2022/12/07 05:37:29;;;;;;;10.7;8.5;;;;;;;2.93;92.3252;935.3901;;;;
2022/12/07 05:39:59;;;;;;;11.4;7.8;;;;;;;2.88;92.58496;935.4066;;;;
2022/12/07 05:46:21;;;;;;;9.8;7.9;;;;;;;2.93;92.0791;935.4241;;;;
2022/12/07 05:48:49;;;;;;;10.2;8.1;;;;;;;2.96;91.94043;935.4156;;;;
2022/12/07 05:51:14;;;;;;;9.8;7.7;;;;;;;2.99;91.91309;935.4267;;;;
2022/12/07 05:53:44;;;;;;;11;8.9;;;;;;;3.03;91.77734;935.4324;;;;
2022/12/07 05:56:14;;;;;;;11.4;8.3;;;;;;;3.05;91.56543;935.5156;;;;
2022/12/07 06:01:04;;;;;;;10.6;8.2;;;;;;;3.04;91.74316;935.4483;;;;
2022/12/07 06:03:35;;;;;;;10.7;7.9;;;;;;;3.11;91.81543;935.4883;;;;
2022/12/07 06:06:08;;;;;;;10.9;8.9;;;;;;;3.09;91.75488;935.5009;;;;
2022/12/07 06:08:37;;;;;;;9.3;7.5;;;;;;;3.09;91.69922;935.5192;;;;
2022/12/07 06:12:35;;;;;;;10.9;8.7;;;;;;;3.11;91.66699;935.4992;;;;
2022/12/07 06:13:27;;;;;;;10.8;8.5;;;;;;;3.12;91.62598;935.5271;;;;
2022/12/07 06:15:52;;;;;;;17.9;13.4;;;;;;;3.16;91.55566;935.541;;;;
2022/12/07 06:18:23;;;;;;;9.7;8.3;;;;;;;3.17;91.27832;935.5541;;;;
2022/12/07 06:20:53;;;;;;;10.6;8.1;;;;;;;3.2;91.09375;935.5399;;;;
2022/12/07 06:23:20;;;;;;;10.8;8;;;;;;;3.18;90.9668;935.5575;;;;
2022/12/07 06:25:45;;;;;;;9.7;8.2;;;;;;;3.16;91.54395;935.4678;;;;
2022/12/07 06:28:16;;;;;;;10.7;8.3;;;;;;;3.23;91.53711;935.5712;;;;
2022/12/07 06:30:41;;;;;;;10.5;7.9;;;;;;;3.27;91.33203;935.625;;;;
2022/12/07 06:33:09;;;;;;;10.1;8.2;;;;;;;3.27;90.91797;935.618;;;;
2022/12/07 06:35:34;;;;;;;10.9;8.3;;;;;;;3.27;90.90723;935.6512;;;;
2022/12/07 06:38:00;;;;;;;11.6;8.6;;;;;;;3.21;90.93848;935.6704;;;;
2022/12/07 06:40:49;;;;;;;10.9;8.3;;;;;;;3.24;90.91211;935.5094;;;;
2022/12/07 06:43:14;;;;;;;11;8.7;;;;;;;3.27;90.75;935.6589;;;;
2022/12/07 06:45:42;;;;;;;10.2;8;;;;;;;3.2;90.82422;935.7147;;;;
2022/12/07 06:48:14;;;;;;;10;8.1;;;;;;;3.26;90.87109;935.7469;;;;
2022/12/07 06:50:46;;;;;;;10.1;8.3;;;;;;;3.31;90.73535;935.7342;;;;
2022/12/07 06:53:17;;;;;;;10.6;8.5;;;;;;;3.32;90.70508;935.8156;;;;
2022/12/07 06:55:49;;;;;;;11.1;8.7;;;;;;;3.29;90.57422;935.8131;;;;
2022/12/07 06:58:20;;;;;;;11.7;8.9;;;;;;;3.25;90.7334;935.8331;;;;
2022/12/07 07:00:51;;;;;;;11.9;9.1;;;;;;;3.27;90.76074;935.8322;;;;
2022/12/07 07:03:22;;;;;;;11.7;9.4;;;;;;;3.23;90.71777;935.889;;;;
2022/12/07 07:05:54;;;;;;;15.5;11.2;;;;;;;3.26;90.58008;935.8271;;;;
2022/12/07 07:08:25;;;;;;;17.3;12;;;;;;;3.31;90.54395;935.9057;;;;
2022/12/07 07:10:55;;;;;;;17.6;12.5;;;;;;;3.33;90.60645;935.8861;;;;
2022/12/07 07:13:20;;;;;;;19.4;13.4;;;;;;;3.33;90.79492;935.8978;;;;
2022/12/07 07:15:45;;;;;;;21.4;14.1;;;;;;;3.32;90.92773;935.9265;;;;
2022/12/07 07:18:10;;;;;;;18.5;13.3;;;;;;;3.3;91.09277;935.937;;;;
2022/12/07 07:20:39;;;;;;;17.4;13.2;;;;;;;3.33;91.09863;935.9984;;;;
2022/12/07 07:23:04;;;;;;;17.4;13;;;;;;;3.32;91.00684;935.9674;;;;
2022/12/07 07:25:32;;;;;;;15.1;10.8;;;;;;;3.31;91.10547;935.9963;;;;
2022/12/07 07:27:57;;;;;;;13.5;10.5;;;;;;;3.28;91.00977;936.0559;;;;
2022/12/07 07:30:24;;;;;;;14.3;10.5;;;;;;;3.27;91.17676;936.0305;;;;
2022/12/07 07:32:49;;;;;;;14.3;10.3;;;;;;;3.2;91.65527;936.0175;;;;
2022/12/07 07:35:21;;;;;;;13.8;11;;;;;;;3.22;91.77148;936.0807;;;;
2022/12/07 07:37:51;;;;;;;16.7;12;;;;;;;3.24;91.85547;936.0687;;;;
2022/12/07 07:40:20;;;;;;;15.6;12.1;;;;;;;3.29;91.46289;936.0846;;;;
2022/12/07 07:42:45;;;;;;;17.6;12.7;;;;;;;3.28;91.65039;936.0449;;;;
2022/12/07 07:45:17;;;;;;;16.1;11.9;;;;;;;3.34;91.52734;936.0002;;;;
2022/12/07 07:47:46;;;;;;;15.7;12.5;;;;;;;3.34;91.45996;936.0609;;;;
2022/12/07 07:50:11;;;;;;;19.7;12.5;;;;;;;3.27;91.47754;936.1113;;;;
2022/12/07 07:52:39;;;;;;;17.9;12.8;;;;;;;3.33;91.42383;936.1219;;;;
2022/12/07 07:55:04;;;;;;;18.3;13.5;;;;;;;3.24;91.56152;936.108;;;;
2022/12/07 07:57:34;;;;;;;16.7;12.4;;;;;;;3.3;91.49707;936.1423;;;;
2022/12/07 08:00:03;;;;;;;16.5;12.2;;;;;;;3.37;91.45605;936.1777;;;;
2022/12/07 08:02:31;;;;;;;16.8;12.3;;;;;;;3.45;91.40625;936.2065;;;;
2022/12/07 08:04:59;;;;;;;17.4;12.2;;;;;;;3.5;91.21387;936.1844;;;;
2022/12/07 08:07:25;;;;;;;16.7;12.7;;;;;;;3.54;90.95215;936.1973;;;;
2022/12/07 08:09:54;;;;;;;16.1;11.8;;;;;;;3.57;90.76855;936.2213;;;;
2022/12/07 08:12:19;;;;;;;14.8;11.4;;;;;;;3.32;90.8623;936.2374;;;;
2022/12/07 08:14:48;;;;;;;16.5;11.4;;;;;;;3.29;91.43652;936.1544;;;;
2022/12/07 08:17:22;;;;;;;15.5;11.3;;;;;;;3.11;92.0166;936.223;;;;
2022/12/07 08:19:49;;;;;;;12.5;9.3;;;;;;;2.92;92.73633;936.2695;;;;
2022/12/07 08:22:14;;;;;;;16.5;10.9;;;;;;;2.73;93.48438;936.3369;;;;
2022/12/07 08:24:46;;;;;;;22.3;14;;;;;;;2.78;94.05273;936.3367;;;;
2022/12/07 08:27:15;;;;;;;8.9;6.8;;;;;;;2.88;93.6709;936.3351;;;;
2022/12/07 08:29:40;;;;;;;14.2;9.2;;;;;;;2.81;93.32031;936.3405;;;;
2022/12/07 08:32:07;;;;;;;20.5;11.8;;;;;;;2.58;93.78418;936.334;;;;
2022/12/07 08:34:32;;;;;;;13;7.9;;;;;;;2.78;94.03027;936.3312;;;;
2022/12/07 08:36:57;;;;;;;8.6;6.5;;;;;;;2.82;93.62305;936.3997;;;;
2022/12/07 08:39:27;;;;;;;22.7;11.1;;;;;;;2.88;93.3457;936.3635;;;;
2022/12/07 08:41:52;;;;;;;13.4;8.9;;;;;;;2.9;93.06934;936.3876;;;;
2022/12/07 08:44:20;;;;;;;7.9;6.4;;;;;;;2.95;92.87695;936.2587;;;;
2022/12/07 08:46:45;;;;;;;6.9;6.2;;;;;;;3.02;92.51367;936.3936;;;;
2022/12/07 08:49:13;;;;;;;7.9;6.6;;;;;;;2.97;92.11133;936.4005;;;;
2022/12/07 08:51:38;;;;;;;7.9;6.1;;;;;;;3.07;91.86133;936.3851;;;;
2022/12/07 08:54:07;;;;;;;7.3;6.1;;;;;;;2.91;91.50293;936.3858;;;;
2022/12/07 08:56:32;;;;;;;7.1;6;;;;;;;2.97;92.09766;936.412;;;;
2022/12/07 08:58:58;;;;;;;6.8;5.8;;;;;;;3.08;91.75293;936.4196;;;;
2022/12/07 09:01:23;;;;;;;6.6;5.9;;;;;;;3.12;91.25586;936.4649;;;;
2022/12/07 09:03:48;;;;;;;7.5;6.5;;;;;;;3.12;90.73926;936.4317;;;;
2022/12/07 09:06:13;;;;;;;7.8;6.5;;;;;;;3.07;90.88477;936.4387;;;;
2022/12/07 09:08:40;;;;;;;8.2;6.5;;;;;;;3.05;90.94824;936.3491;;;;
2022/12/07 09:11:05;;;;;;;8.1;6.5;;;;;;;3.16;91.09766;936.4512;;;;
2022/12/07 09:13:32;;;;;;;7.9;6.9;;;;;;;2.97;91.1123;936.498;;;;
2022/12/07 09:16:05;;;;;;;8.5;7;;;;;;;3.01;91.41016;936.4799;;;;
2022/12/07 09:18:30;;;;;;;8.2;7.1;;;;;;;3;91.36523;936.4054;;;;
2022/12/07 09:20:57;;;;;;;7.5;6.6;;;;;;;3.12;90.97559;936.3728;;;;
2022/12/07 09:23:23;;;;;;;8.2;6.9;;;;;;;3.21;90.89355;936.3901;;;;
2022/12/07 09:25:50;;;;;;;9.5;6.8;;;;;;;3.24;90.49707;936.3606;;;;
2022/12/07 09:28:15;;;;;;;7.7;6.8;;;;;;;3.19;90.59961;936.3682;;;;
2022/12/07 09:30:42;;;;;;;9.6;7.6;;;;;;;3.22;90.7832;936.4064;;;;
2022/12/07 09:33:07;;;;;;;9.5;7.6;;;;;;;3.29;90.41895;936.3239;;;;
2022/12/07 09:35:39;;;;;;;11.1;7.9;;;;;;;3.37;90.28809;936.3697;;;;
2022/12/07 09:38:09;;;;;;;9.9;7.4;;;;;;;3.5;89.70898;936.3687;;;;
2022/12/07 09:40:39;;;;;;;10.6;9.1;;;;;;;3.53;89.26465;936.3876;;;;
2022/12/07 09:43:11;;;;;;;8.9;7.1;;;;;;;3.61;88.83301;936.4063;;;;
2022/12/07 09:45:36;;;;;;;8.7;7.1;;;;;;;3.66;88.36133;936.3758;;;;
2022/12/07 09:48:01;;;;;;;9.2;7.4;;;;;;;3.65;88.30273;936.3818;;;;
2022/12/07 09:50:29;;;;;;;8.5;7.2;;;;;;;3.57;88.38672;936.3622;;;;
2022/12/07 09:52:58;;;;;;;8.1;6.9;;;;;;;3.61;88.16992;936.3741;;;;
2022/12/07 09:55:23;;;;;;;9.3;7.5;;;;;;;3.54;88.3457;936.3533;;;;
2022/12/07 09:57:52;;;;;;;8.8;7.2;;;;;;;3.5;88.66406;936.3303;;;;
2022/12/07 10:00:17;;;;;;;10.5;7.8;;;;;;;3.48;88.91895;936.3491;;;;
2022/12/07 10:02:44;;;;;;;8.7;7;;;;;;;3.58;88.83789;936.2831;;;;
2022/12/07 10:05:13;;;;;;;12.1;10.8;;;;;;;3.58;88.42285;936.2374;;;;
2022/12/07 10:07:38;;;;;;;8.6;7.2;;;;;;;3.72;88.3291;936.2405;;;;
2022/12/07 10:10:06;;;;;;;10.3;7.7;;;;;;;3.86;87.66016;936.2932;;;;
2022/12/07 10:12:31;;;;;;;8.7;7.5;;;;;;;3.85;87.38672;936.255;;;;
2022/12/07 10:14:56;;;;;;;9.5;7.5;;;;;;;3.86;87.46875;936.2098;;;;
2022/12/07 10:17:21;;;;;;;9.4;7.1;;;;;;;3.72;87.97852;936.2216;;;;
2022/12/07 10:19:46;;;;;;;10;7.7;;;;;;;3.74;88.35547;936.1783;;;;
2022/12/07 10:22:11;;;;;;;9.2;7.3;;;;;;;3.69;87.80469;936.1838;;;;
2022/12/07 10:24:37;;;;;;;10;7.6;;;;;;;3.66;87.6084;936.1459;;;;
2022/12/07 10:27:03;;;;;;;9.4;7.4;;;;;;;3.51;88.14941;936.1116;;;;
2022/12/07 10:29:31;;;;;;;9.2;7.4;;;;;;;3.54;88.44922;936.022;;;;
2022/12/07 10:31:56;;;;;;;9.5;7.5;;;;;;;3.49;88.57227;936.0598;;;;
2022/12/07 10:34:21;;;;;;;10.5;8.2;;;;;;;3.64;88.6582;936.0104;;;;
2022/12/07 10:36:46;;;;;;;9.5;7.4;;;;;;;3.79;87.94922;936.0262;;;;
2022/12/07 10:39:11;;;;;;;10.6;7.9;;;;;;;3.84;87.61133;935.9808;;;;
2022/12/07 10:41:37;;;;;;;12.6;9.5;;;;;;;3.81;86.875;935.969;;;;
2022/12/07 10:44:02;;;;;;;9.8;7.8;;;;;;;3.88;86.91211;935.9545;;;;
2022/12/07 10:46:28;;;;;;;9.6;7.5;;;;;;;3.96;87.19727;935.9827;;;;
2022/12/07 10:48:58;;;;;;;9.8;7.3;;;;;;;3.99;86.22461;935.9665;;;;
2022/12/07 10:51:23;;;;;;;9;7.7;;;;;;;4.03;85.92773;936.0158;;;;
2022/12/07 10:53:49;;;;;;;8.9;7.5;;;;;;;4.06;86.16016;935.9688;;;;
2022/12/07 10:56:14;;;;;;;9.8;8.2;;;;;;;3.91;86.62598;935.9529;;;;
2022/12/07 10:58:43;;;;;;;9.9;7.7;;;;;;;3.91;86.54688;935.9285;;;;
2022/12/07 11:01:08;;;;;;;8.7;7.3;;;;;;;3.85;86.39941;935.9377;;;;
2022/12/07 11:03:39;;;;;;;9;7.2;;;;;;;3.87;86.23438;935.7911;;;;
2022/12/07 11:06:08;;;;;;;9.2;7.4;;;;;;;3.88;86.2832;935.8317;;;;
2022/12/07 11:08:34;;;;;;;9.9;7.4;;;;;;;3.96;86.0498;935.8128;;;;
2022/12/07 11:10:58;;;;;;;8.6;7.2;;;;;;;4.03;85.42188;935.7764;;;;
2022/12/07 11:13:23;;;;;;;9;7.2;;;;;;;4.08;85.08398;935.7874;;;;
2022/12/07 11:15:48;;;;;;;9;7.4;;;;;;;4.17;84.60742;935.7545;;;;
2022/12/07 11:18:13;;;;;;;9.2;7;;;;;;;4.26;84.08496;935.7078;;;;
2022/12/07 11:20:39;;;;;;;9.8;7.9;;;;;;;4.23;84.10449;935.7733;;;;
2022/12/07 11:23:04;;;;;;;14.6;9.9;;;;;;;4.29;83.81055;935.7992;;;;
2022/12/07 11:25:29;;;;;;;9.9;7.7;;;;;;;4.09;83.53418;935.7081;;;;
2022/12/07 11:27:55;;;;;;;10.2;7.5;;;;;;;;;;;;;
2022/12/07 11:30:22;;;;;;;9.3;7;;;;;;;;;;;;;
2022/12/07 11:32:47;;;;;;;8.8;6.8;;;;;;;;;;;;;
2022/12/07 11:35:13;;;;;;;9.5;7.1;;;;;;;;;;;;;
2022/12/07 11:37:40;;;;;;;8.4;6.7;;;;;;;;;;;;;
2022/12/07 11:40:05;;;;;;;15.8;10;;;;;;;;;;;;;
2022/12/07 11:42:30;;;;;;;9;7;;;;;;;;;;;;;
2022/12/07 11:44:57;;;;;;;8;6.7;;;;;;;;;;;;;
2022/12/07 11:47:22;;;;;;;7.9;6.6;;;;;;;;;;;;;
2022/12/07 11:49:47;;;;;;;8.7;7;;;;;;;;;;;;;
2022/12/07 11:52:12;;;;;;;7.4;6.2;;;;;;;;;;;;;
2022/12/07 11:54:37;;;;;;;8.5;6.4;;;;;;;;;;;;;
2022/12/07 11:57:03;;;;;;;9.4;6.3;;;;;;;;;;;;;
2022/12/07 11:59:28;;;;;;;9.2;6.8;;;;;;;;;;;;;
2022/12/07 12:01:56;;;;;;;8.5;6.8;;;;;;;;;;;;;
2022/12/07 12:04:21;;;;;;;8.6;6.6;;;;;;;;;;;;;
2022/12/07 12:06:48;;;;;;;9.3;7.1;;;;;;;;;;;;;
2022/12/07 12:09:13;;;;;;;11;7.6;;;;;;;;;;;;;
2022/12/07 12:11:39;;;;;;;8.8;6.6;;;;;;;;;;;;;
2022/12/07 12:14:04;;;;;;;7.4;6.6;;;;;;;;;;;;;
2022/12/07 12:16:29;;;;;;;7.7;6.2;;;;;;;;;;;;;
2022/12/07 12:18:55;;;;;;;7.4;6;;;;;;;;;;;;;
2022/12/07 12:21:19;;;;;;;7.2;5.8;;;;;;;;;;;;;
2022/12/07 12:23:46;;;;;;;7.3;5.8;;;;;;;;;;;;;
2022/12/07 12:26:11;;;;;;;10.1;6.9;;;;;;;;;;;;;
2022/12/07 12:28:37;;;;;;;8.5;6.8;;;;;;;;;;;;;
2022/12/07 12:31:02;;;;;;;8.1;6;;;;;;;;;;;;;
2022/12/07 12:33:28;;;;;;;11.9;8;;;;;;;;;;;;;
2022/12/07 12:35:53;;;;;;;10.4;7.6;;;;;;;;;;;;;
2022/12/07 12:38:18;;;;;;;9.6;6.6;;;;;;;;;;;;;
2022/12/07 12:40:46;;;;;;;8.4;6.2;;;;;;;;;;;;;
2022/12/07 12:43:12;;;;;;;6.8;5.4;;;;;;;;;;;;;
2022/12/07 12:45:37;;;;;;;5.9;4.9;;;;;;;;;;;;;
2022/12/07 12:48:02;;;;;;;6.6;5.6;;;;;;;;;;;;;
2022/12/07 12:50:27;;;;;;;16;10.8;;;;;;;;;;;;;
2022/12/07 12:52:52;;;;;;;7.4;6;;;;;;;;;;;;;
2022/12/07 12:55:20;;;;;;;7.8;6.3;;;;;;;;;;;;;
2022/12/07 12:57:43;;;;;;;17.6;10.4;;;;;;;;;;;;;
2022/12/07 13:00:08;;;;;;;8.3;6.6;;;;;;;;;;;;;
2022/12/07 13:02:33;;;;;;;9.3;6.7;;;;;;;;;;;;;
2022/12/07 13:04:58;;;;;;;9.7;6.6;;;;;;;;;;;;;
2022/12/07 13:07:24;;;;;;;10;7.7;;;;;;;;;;;;;
2022/12/07 13:09:49;;;;;;;8.5;7.2;;;;;;;;;;;;;
2022/12/07 13:12:14;;;;;;;11.5;7.7;;;;;;;;;;;;;
2022/12/07 13:14:41;;;;;;;9.9;7.5;;;;;;;;;;;;;
2022/12/07 13:17:05;;;;;;;9.5;7.2;;;;;;;;;;;;;
2022/12/07 13:19:30;;;;;;;8.5;6.4;;;;;;;;;;;;;
2022/12/07 13:21:57;;;;;;;10.3;6.5;;;;;;;;;;;;;
2022/12/07 13:24:22;;;;;;;9.3;6.9;;;;;;;;;;;;;
2022/12/07 13:26:47;;;;;;;9.6;6.5;;;;;;;;;;;;;
2022/12/07 13:29:15;;;;;;;7.9;6.5;;;;;;;;;;;;;
2022/12/07 13:31:40;;;;;;;7.6;6.1;;;;;;;;;;;;;
2022/12/07 13:34:07;;;;;;;7.9;6;;;;;;;;;;;;;
2022/12/07 13:36:35;;;;;;;6.8;5.2;;;;;;;;;;;;;
2022/12/07 13:38:57;;;;;;;9.1;7;;;;;;;;;;;;;
2022/12/07 13:41:23;;;;;;;7.1;5.9;;;;;;;;;;;;;
2022/12/07 13:43:51;;;;;;;8;6.8;;;;;;;;;;;;;
2022/12/07 13:46:17;;;;;;;10.1;6.1;;;;;;;;;;;;;
2022/12/07 13:48:42;;;;;;;8.1;6.2;;;;;;;;;;;;;
2022/12/07 13:51:07;;;;;;;7.8;6.2;;;;;;;;;;;;;
2022/12/07 13:53:33;;;;;;;7.2;6.2;;;;;;;;;;;;;
2022/12/07 13:55:58;;;;;;;7.9;6.3;;;;;;;;;;;;;
2022/12/07 13:58:23;;;;;;;7.4;5.8;;;;;;;;;;;;;
2022/12/07 14:00:49;;;;;;;8.3;6;;;;;;;;;;;;;
2022/12/07 14:03:15;;;;;;;6.2;5.4;;;;;;;;;;;;;
2022/12/07 14:05:40;;;;;;;8;5.8;;;;;;;;;;;;;
2022/12/07 14:08:05;;;;;;;6.5;5.7;;;;;;;;;;;;;
2022/12/07 14:10:33;;;;;;;9.3;6.9;;;;;;;;;;;;;
2022/12/07 14:12:59;;;;;;;10.2;6.8;;;;;;;;;;;;;
2022/12/07 14:15:25;;;;;;;7.9;5.5;;;;;;;;;;;;;
2022/12/07 14:17:50;;;;;;;7.6;5.5;;;;;;;;;;;;;
2022/12/07 14:20:15;;;;;;;7.2;5.6;;;;;;;;;;;;;
2022/12/07 14:22:40;;;;;;;5.7;5;;;;;;;;;;;;;
2022/12/07 14:25:06;;;;;;;8.1;6.6;;;;;;;;;;;;;
2022/12/07 14:27:33;;;;;;;8.3;6;;;;;;;;;;;;;
2022/12/07 14:29:58;;;;;;;7.8;6.1;;;;;;;;;;;;;
2022/12/07 14:32:27;;;;;;;7.7;5.8;;;;;;;;;;;;;
2022/12/07 14:34:48;;;;;;;7.4;5.8;;;;;;;;;;;;;
2022/12/07 14:37:13;;;;;;;6.8;5.6;;;;;;;;;;;;;
2022/12/07 14:39:38;;;;;;;7.5;5.7;;;;;;;;;;;;;
2022/12/07 14:42:04;;;;;;;7;5.2;;;;;;;;;;;;;
2022/12/07 14:44:29;;;;;;;7.6;5.5;;;;;;;;;;;;;
2022/12/07 14:46:57;;;;;;;6.7;5.3;;;;;;;;;;;;;
2022/12/07 14:49:22;;;;;;;7.7;5.2;;;;;;;;;;;;;
2022/12/07 14:51:47;;;;;;;7.2;5.5;;;;;;;;;;;;;
2022/12/07 14:54:12;;;;;;;15.9;12.4;;;;;;;;;;;;;
2022/12/07 14:56:37;;;;;;;8.1;6.2;;;;;;;;;;;;;
2022/12/07 14:59:03;;;;;;;7.3;5.6;;;;;;;;;;;;;
2022/12/07 15:01:28;;;;;;;5.8;5.1;;;;;;;;;;;;;
2022/12/07 15:03:54;;;;;;;6.9;4.8;;;;;;;;;;;;;
2022/12/07 15:06:19;;;;;;;13.2;10.2;;;;;;;;;;;;;
2022/12/07 15:08:45;;;;;;;11.8;8.9;;;;;;;;;;;;;
2022/12/07 15:11:10;;;;;;;12.9;10.9;;;;;;;;;;;;;
2022/12/07 15:16:02;;;;;;;19;16.6;;;;;;;;;;;;;
2022/12/07 15:18:31;;;;;;;20;14.2;;;;;;;;;;;;;
2022/12/07 15:20:56;;;;;;;19.7;17.6;;;;;;;;;;;;;
2022/12/07 15:23:22;;;;;;;16;11.9;;;;;;;;;;;;;
2022/12/07 15:25:47;;;;;;;17.4;12.6;;;;;;;;;;;;;
2022/12/07 15:28:12;;;;;;;17.2;13.2;;;;;;;;;;;;;
2022/12/07 15:30:37;;;;;;;19;14;;;;;;;;;;;;;
2022/12/07 15:33:04;;;;;;;19.1;13.2;;;;;;;;;;;;;
2022/12/07 15:35:29;;;;;;;18.3;12.4;;;;;;;;;;;;;
2022/12/07 15:37:54;;;;;;;14.5;10.4;;;;;;;;;;;;;
2022/12/07 15:40:19;;;;;;;16.1;10;;;;;;;;;;;;;
2022/12/07 15:42:49;;;;;;;13.9;10.4;;;;;;;;;;;;;
2022/12/07 15:45:18;;;;;;;25.5;22.5;;;;;;;;;;;;;
2022/12/07 15:47:44;;;;;;;15.6;10.2;;;;;;;;;;;;;
2022/12/07 15:50:12;;;;;;;15.9;10.3;;;;;;;;;;;;;
2022/12/07 15:52:39;;;;;;;14.8;10.3;;;;;;;;;;;;;
2022/12/07 15:55:04;;;;;;;20.3;11.9;;;;;;;;;;;;;
2022/12/07 15:57:29;;;;;;;27.5;15.7;;;;;;;;;;;;;
2022/12/07 15:59:55;;;;;;;30.2;16.5;;;;;;;;;;;;;
2022/12/07 16:02:20;;;;;;;28.8;15.9;;;;;;;;;;;;;
2022/12/07 16:04:46;;;;;;;24.9;15.3;;;;;;;;;;;;;
2022/12/07 16:07:11;;;;;;;20.4;11.9;;;;;;;;;;;;;
2022/12/07 16:09:37;;;;;;;14.6;9.9;;;;;;;;;;;;;
2022/12/07 16:12:03;;;;;;;13.6;9.5;;;;;;;;;;;;;
2022/12/07 16:14:28;;;;;;;12.7;9.1;;;;;;;;;;;;;
2022/12/07 16:16:53;;;;;;;13.1;9.2;;;;;;;;;;;;;
2022/12/07 16:19:20;;;;;;;13.6;9.6;;;;;;;;;;;;;
2022/12/07 16:21:45;;;;;;;11.2;8.2;;;;;;;;;;;;;
2022/12/07 16:24:12;;;;;;;11.6;8.8;;;;;;;;;;;;;
2022/12/07 16:26:35;;;;;;;10.8;8.8;;;;;;;;;;;;;
2022/12/07 16:29:01;;;;;;;10.4;8.6;;;;;;;;;;;;;
2022/12/07 16:31:26;;;;;;;10.6;8.1;;;;;;;;;;;;;
2022/12/07 16:33:52;;;;;;;9.1;6.3;;;;;;;;;;;;;
2022/12/07 16:36:18;;;;;;;8.2;6.4;;;;;;;;;;;;;
2022/12/07 16:38:44;;;;;;;10.3;7.7;;;;;;;;;;;;;
2022/12/07 16:41:09;;;;;;;10;7.7;;;;;;;;;;;;;
2022/12/07 16:43:36;;;;;;;10.1;7.1;;;;;;;;;;;;;
2022/12/07 16:46:01;;;;;;;9.7;7.1;;;;;;;;;;;;;